createdAt,value
2022-09-10T00:00:07.333Z,76.49
2022-09-10T00:07:22.236Z,76.92
2022-09-10T00:14:24.867Z,77.54
2022-09-10T00:21:24.541Z,78.05
2022-09-10T00:28:18.860Z,78.07
2022-09-10T00:35:21.955Z,78.05
2022-09-10T00:42:17.545Z,78.22
2022-09-10T00:49:20.336Z,78.29
2022-09-10T00:56:22.926Z,78.29
2022-09-10T01:03:20.537Z,78.26
2022-09-10T01:10:26.812Z,78.36
2022-09-10T01:17:35.032Z,78.56
2022-09-10T01:24:59.143Z,78.99
2022-09-10T01:32:04.773Z,78.73
2022-09-10T01:39:13.455Z,78.48
2022-09-10T01:46:16.340Z,78.42
2022-09-10T01:53:18.882Z,78.31
2022-09-10T02:00:24.376Z,78.53
2022-09-10T02:07:27.653Z,78.65
2022-09-10T02:14:12.756Z,78.65
2022-09-10T02:21:15.405Z,78.60
2022-09-10T02:28:18.320Z,78.50
2022-09-10T02:35:21.164Z,78.76
2022-09-10T02:42:02.642Z,78.97
2022-09-10T02:49:04.391Z,78.70
2022-09-10T02:56:06.171Z,78.77
2022-09-10T03:03:08.878Z,79.20
2022-09-10T03:10:11.681Z,79.10
2022-09-10T03:17:14.379Z,79.14
2022-09-10T03:24:17.526Z,79.03
2022-09-10T03:31:12.855Z,79.46
2022-09-10T03:38:15.989Z,79.60
2022-09-10T03:45:19.131Z,79.76
2022-09-10T03:52:21.615Z,80.11
2022-09-10T03:59:22.804Z,80.24
2022-09-10T04:06:25.794Z,80.24
2022-09-10T04:13:28.593Z,79.90
2022-09-10T04:20:31.523Z,80.02
2022-09-10T04:27:35.632Z,80.13
2022-09-10T04:34:24.377Z,80.43
2022-09-10T04:41:16.202Z,80.50
2022-09-10T04:48:19.066Z,81.00
2022-09-10T04:55:14.160Z,81.21
2022-09-10T05:02:10.846Z,81.14
2022-09-10T05:09:05.961Z,81.26
2022-09-10T05:15:57.978Z,81.19
2022-09-10T05:22:59.827Z,81.11
2022-09-10T05:30:02.994Z,81.07
2022-09-10T05:36:41.804Z,81.60
2022-09-10T05:43:44.479Z,81.48
2022-09-10T05:50:47.055Z,81.42
2022-09-10T05:57:43.654Z,81.54
2022-09-10T06:04:46.757Z,81.71
2022-09-10T06:11:55.944Z,81.99
2022-09-10T06:18:59.526Z,81.87
2022-09-10T06:26:02.830Z,81.64
2022-09-10T06:33:05.798Z,81.50
2022-09-10T06:39:53.886Z,81.29
2022-09-10T06:47:46.276Z,81.43
2022-09-10T06:54:11.190Z,80.95
2022-09-10T07:01:14.061Z,79.99
2022-09-10T07:08:09.907Z,79.95
2022-09-10T07:15:12.890Z,79.47
2022-09-10T07:22:07.316Z,79.19
2022-09-10T07:29:09.943Z,79.35
2022-09-10T07:35:52.554Z,78.83
2022-09-10T07:42:55.753Z,78.69
2022-09-10T07:49:57.860Z,78.77
2022-09-10T07:57:00.964Z,78.44
2022-09-10T08:03:56.244Z,77.97
2022-09-10T08:10:44.691Z,77.53
2022-09-10T08:17:47.532Z,77.29
2022-09-10T08:24:42.941Z,77.10
2022-09-10T08:32:03.833Z,76.31
2022-09-10T08:39:03.063Z,75.73
2022-09-10T08:46:10.396Z,75.46
2022-09-10T08:53:13.425Z,74.61
2022-09-10T09:00:16.172Z,73.97
2022-09-10T09:07:30.871Z,74.06
2022-09-10T09:14:44.149Z,73.40
2022-09-10T09:21:58.559Z,72.86
2022-09-10T09:28:38.643Z,72.10
2022-09-10T09:35:38.652Z,71.14
2022-09-10T09:42:59.219Z,70.57
2022-09-10T09:50:02.158Z,70.37
2022-09-10T09:57:37.039Z,69.72
2022-09-10T10:05:00.407Z,69.04
2022-09-10T10:12:03.470Z,68.57
2022-09-10T10:19:09.206Z,68.38
2022-09-10T10:26:19.556Z,67.60
2022-09-10T10:33:22.306Z,66.01
2022-09-10T10:40:31.109Z,65.38
2022-09-10T10:48:01.686Z,64.45
2022-09-10T10:55:13.763Z,64.13
2022-09-10T11:02:19.360Z,63.03
2022-09-10T11:09:19.048Z,62.92
2022-09-10T11:16:24.765Z,62.84
2022-09-10T11:23:23.387Z,63.02
2022-09-10T11:30:47.630Z,62.87
2022-09-10T11:37:44.364Z,62.10
2022-09-10T11:44:45.084Z,59.56
2022-09-10T11:51:52.952Z,59.35
2022-09-10T11:58:56.505Z,59.21
2022-09-10T12:06:23.390Z,59.50
2022-09-10T12:13:38.391Z,59.11
2022-09-10T12:20:41.391Z,58.77
2022-09-10T12:27:24.149Z,58.66
2022-09-10T12:34:27.040Z,60.05
2022-09-10T12:41:51.084Z,60.33
2022-09-10T12:48:50.933Z,59.10
2022-09-10T12:56:19.603Z,58.96
2022-09-10T13:03:10.532Z,58.22
2022-09-10T13:10:21.913Z,58.86
2022-09-10T13:17:21.122Z,58.99
2022-09-10T13:24:44.697Z,59.04
2022-09-10T13:31:46.087Z,58.58
2022-09-10T13:39:11.983Z,58.79
2022-09-10T13:46:17.711Z,58.49
2022-09-10T13:53:08.330Z,58.59
2022-09-10T14:00:11.064Z,58.30
2022-09-10T14:07:19.825Z,58.08
2022-09-10T14:14:23.812Z,57.44
2022-09-10T14:21:28.199Z,58.56
2022-09-10T14:28:29.233Z,58.59
2022-09-10T14:35:34.731Z,58.54
2022-09-10T14:42:48.675Z,58.82
2022-09-10T14:50:07.025Z,59.83
2022-09-10T14:57:15.551Z,60.38
2022-09-10T15:04:01.221Z,61.19
2022-09-10T15:10:56.090Z,61.56
2022-09-10T15:17:58.934Z,61.40
2022-09-10T15:25:07.954Z,61.57
2022-09-10T15:31:59.427Z,61.53
2022-09-10T15:38:54.803Z,60.91
2022-09-10T15:45:57.722Z,61.48
2022-09-10T15:53:00.327Z,61.47
2022-09-10T16:00:03.552Z,62.15
2022-09-10T16:07:06.422Z,65.43
2022-09-10T16:14:04.663Z,67.10
2022-09-10T16:21:06.501Z,68.10
2022-09-10T16:28:01.997Z,69.29
2022-09-10T16:35:03.551Z,69.42
2022-09-10T16:42:06.607Z,70.21
2022-09-10T16:49:09.818Z,71.50
2022-09-10T16:55:56.873Z,72.55
2022-09-10T17:02:32.044Z,73.41
2022-09-10T17:09:34.885Z,73.90
2022-09-10T17:16:30.739Z,74.70
2022-09-10T17:22:56.259Z,74.85
2022-09-10T17:30:05.964Z,75.36
2022-09-10T17:37:07.665Z,75.81
2022-09-10T17:43:46.405Z,76.21
2022-09-10T17:50:49.313Z,76.44
2022-09-10T17:57:44.568Z,76.34
2022-09-10T18:04:47.752Z,76.00
2022-09-10T18:11:27.146Z,75.79
2022-09-10T18:18:29.774Z,75.69
2022-09-10T18:25:32.664Z,75.85
2022-09-10T18:32:16.614Z,76.19
2022-09-10T18:39:19.572Z,76.07
2022-09-10T18:46:22.486Z,76.36
2022-09-10T18:53:15.268Z,76.43
2022-09-10T19:00:09.275Z,76.60
2022-09-10T19:07:11.516Z,76.96
2022-09-10T19:14:14.294Z,77.23
2022-09-10T19:21:09.703Z,77.51
2022-09-10T19:28:03.935Z,77.73
2022-09-10T19:35:06.964Z,77.81
2022-09-10T19:42:09.820Z,77.75
2022-09-10T19:49:12.664Z,77.79
2022-09-10T19:56:06.607Z,77.94
2022-09-10T20:02:54.214Z,77.95
2022-09-10T20:09:49.636Z,78.06
2022-09-10T20:16:52.311Z,78.02
2022-09-10T20:23:55.287Z,78.14
2022-09-10T20:30:58.498Z,78.15
2022-09-10T20:38:01.687Z,78.21
2022-09-10T20:44:44.202Z,78.57
2022-09-10T20:51:32.212Z,78.59
2022-09-10T20:58:27.670Z,78.67
2022-09-10T21:05:31.054Z,78.66
2022-09-10T21:12:35.826Z,78.53
2022-09-10T21:19:38.548Z,78.50
2022-09-10T21:26:41.527Z,78.29
2022-09-10T21:33:36.697Z,78.00
2022-09-10T21:40:39.656Z,77.86
2022-09-10T21:47:34.653Z,77.93
2022-09-10T21:54:37.600Z,77.94
2022-09-10T22:01:38.006Z,77.90
2022-09-10T22:08:40.937Z,78.14
2022-09-10T22:15:44.476Z,78.05
2022-09-10T22:22:40.061Z,77.86
2022-09-10T22:29:25.454Z,77.76
2022-09-10T22:36:28.469Z,77.86
2022-09-10T22:43:31.007Z,78.13
2022-09-10T22:50:26.174Z,78.19
2022-09-10T22:57:15.582Z,78.29
2022-09-10T23:04:17.230Z,78.32
2022-09-10T23:11:21.087Z,78.45
2022-09-10T23:18:06.224Z,78.55
2022-09-10T23:25:09.227Z,78.74
2022-09-10T23:32:18.009Z,78.89
2022-09-10T23:39:21.141Z,78.78
2022-09-10T23:46:24.104Z,78.83
2022-09-10T23:53:26.863Z,78.90
